sensor_id;sensor_type;location;lat;lon;timestamp;pressure;altitude;pressure_sealevel;temperature;humidity
75221;BME280;63802;53.232;6.570;2023-03-21T00:01:38;101569.56;;;8.11;98.43
75221;BME280;63802;53.232;6.570;2023-03-21T00:04:04;101594.78;;;8.29;98.41
75221;BME280;63802;53.232;6.570;2023-03-21T00:06:31;101597.84;;;8.27;98.41
75221;BME280;63802;53.232;6.570;2023-03-21T00:09:07;101585.38;;;8.18;98.74
75221;BME280;63802;53.232;6.570;2023-03-21T00:11:33;101586.16;;;8.27;98.24
75221;BME280;63802;53.232;6.570;2023-03-21T00:13:58;101563.81;;;8.13;98.62
75221;BME280;63802;53.232;6.570;2023-03-21T00:16:26;101576.75;;;8.16;98.56
75221;BME280;63802;53.232;6.570;2023-03-21T00:18:55;101549.47;;;8.03;98.45
75221;BME280;63802;53.232;6.570;2023-03-21T00:21:23;101575.63;;;8.17;98.57
75221;BME280;63802;53.232;6.570;2023-03-21T00:23:53;101554.25;;;8.06;98.40
75221;BME280;63802;53.232;6.570;2023-03-21T00:26:19;101549.59;;;8.07;98.63
75221;BME280;63802;53.232;6.570;2023-03-21T00:28:47;101560.91;;;8.18;98.61
75221;BME280;63802;53.232;6.570;2023-03-21T00:31:13;101580.06;;;8.30;98.37
75221;BME280;63802;53.232;6.570;2023-03-21T00:33:39;101554.81;;;8.21;98.74
75221;BME280;63802;53.232;6.570;2023-03-21T00:36:06;101571.91;;;8.30;98.68
75221;BME280;63802;53.232;6.570;2023-03-21T00:38:32;101539.53;;;8.07;98.89
75221;BME280;63802;53.232;6.570;2023-03-21T00:40:58;101562.78;;;8.26;98.63
75221;BME280;63802;53.232;6.570;2023-03-21T00:43:23;101570.78;;;8.31;98.45
75221;BME280;63802;53.232;6.570;2023-03-21T00:45:54;101554.81;;;8.21;98.65
75221;BME280;63802;53.232;6.570;2023-03-21T00:48:21;101559.91;;;8.31;98.77
75221;BME280;63802;53.232;6.570;2023-03-21T00:50:47;101557.19;;;8.31;98.85
75221;BME280;63802;53.232;6.570;2023-03-21T00:53:14;101565.34;;;8.31;98.94
75221;BME280;63802;53.232;6.570;2023-03-21T00:55:40;101563.09;;;8.33;98.73
75221;BME280;63802;53.232;6.570;2023-03-21T00:58:06;101530.66;;;8.19;98.62
75221;BME280;63802;53.232;6.570;2023-03-21T01:00:33;101557.66;;;8.33;98.55
75221;BME280;63802;53.232;6.570;2023-03-21T01:03:01;101547.91;;;8.23;98.77
75221;BME280;63802;53.232;6.570;2023-03-21T01:05:36;101529.88;;;8.19;98.75
75221;BME280;63802;53.232;6.570;2023-03-21T01:08:21;101537.22;;;8.27;98.55
75221;BME280;63802;53.232;6.570;2023-03-21T01:10:49;101552.19;;;8.33;98.92
75221;BME280;63802;53.232;6.570;2023-03-21T01:13:18;101548.38;;;8.34;99.04
75221;BME280;63802;53.232;6.570;2023-03-21T01:15:49;101549.03;;;8.31;98.82
75221;BME280;63802;53.232;6.570;2023-03-21T01:18:16;101550.16;;;8.30;98.94
75221;BME280;63802;53.232;6.570;2023-03-21T01:20:43;101549.19;;;8.34;98.99
75221;BME280;63802;53.232;6.570;2023-03-21T01:23:09;101546.13;;;8.36;98.71
75221;BME280;63802;53.232;6.570;2023-03-21T01:25:36;101504.81;;;8.13;98.77
75221;BME280;63802;53.232;6.570;2023-03-21T01:28:03;101535.13;;;8.32;98.78
75221;BME280;63802;53.232;6.570;2023-03-21T01:30:29;101524.25;;;8.24;98.74
75221;BME280;63802;53.232;6.570;2023-03-21T01:32:55;101529.53;;;8.29;98.73
75221;BME280;63802;53.232;6.570;2023-03-21T01:35:21;101533.31;;;8.36;99.10
75221;BME280;63802;53.232;6.570;2023-03-21T01:37:47;101496.31;;;8.15;98.88
75221;BME280;63802;53.232;6.570;2023-03-21T01:40:19;101488.81;;;8.11;98.54
75221;BME280;63802;53.232;6.570;2023-03-21T01:42:45;101530.59;;;8.36;98.92
75221;BME280;63802;53.232;6.570;2023-03-21T01:48:16;101513.06;;;8.25;98.91
75221;BME280;63802;53.232;6.570;2023-03-21T01:50:42;101500.44;;;8.21;98.77
75221;BME280;63802;53.232;6.570;2023-03-21T01:53:09;101511.47;;;8.24;99.14
75221;BME280;63802;53.232;6.570;2023-03-21T01:55:36;101518.81;;;8.32;98.92
75221;BME280;63802;53.232;6.570;2023-03-21T01:58:03;101520.53;;;8.37;98.96
75221;BME280;63802;53.232;6.570;2023-03-21T02:00:30;101500.56;;;8.24;98.72
75221;BME280;63802;53.232;6.570;2023-03-21T02:02:58;101519.72;;;8.36;99.10
75221;BME280;63802;53.232;6.570;2023-03-21T02:07:55;101476.03;;;8.12;98.90
75221;BME280;63802;53.232;6.570;2023-03-21T02:10:21;101521.63;;;8.36;99.32
75221;BME280;63802;53.232;6.570;2023-03-21T02:12:47;101509.66;;;8.37;98.97
75221;BME280;63802;53.232;6.570;2023-03-21T02:15:13;101510.44;;;8.37;99.01
75221;BME280;63802;53.232;6.570;2023-03-21T02:17:42;101504.22;;;8.37;99.03
75221;BME280;63802;53.232;6.570;2023-03-21T02:37:33;101457.53;;;8.35;98.87
75221;BME280;63802;53.232;6.570;2023-03-21T02:45:18;101467.84;;;8.41;99.03
75221;BME280;63802;53.232;6.570;2023-03-21T02:47:50;101435.88;;;8.18;99.56
75221;BME280;63802;53.232;6.570;2023-03-21T02:50:23;101445.69;;;8.31;99.29
75221;BME280;63802;53.232;6.570;2023-03-21T02:52:53;101448.41;;;8.31;99.28
75221;BME280;63802;53.232;6.570;2023-03-21T02:55:23;101447.31;;;8.32;99.12
75221;BME280;63802;53.232;6.570;2023-03-21T02:57:52;101426.91;;;8.17;99.03
75221;BME280;63802;53.232;6.570;2023-03-21T03:00:24;101443.47;;;8.24;99.17
75221;BME280;63802;53.232;6.570;2023-03-21T03:02:50;101431.50;;;8.25;98.94
75221;BME280;63802;53.232;6.570;2023-03-21T03:05:24;101460.00;;;8.40;99.11
75221;BME280;63802;53.232;6.570;2023-03-21T03:13:49;101465.44;;;8.40;99.33
75221;BME280;63802;53.232;6.570;2023-03-21T03:19:04;101421.81;;;8.16;99.19
75221;BME280;63802;53.232;6.570;2023-03-21T03:21:50;101460.97;;;8.44;99.23
75221;BME280;63802;53.232;6.570;2023-03-21T03:24:23;101459.34;;;8.43;99.44
75221;BME280;63802;53.232;6.570;2023-03-21T03:27:05;101453.00;;;8.39;99.39
75221;BME280;63802;53.232;6.570;2023-03-21T03:29:33;101439.16;;;8.32;99.12
75221;BME280;63802;53.232;6.570;2023-03-21T03:32:21;101456.19;;;8.41;99.13
75221;BME280;63802;53.232;6.570;2023-03-21T03:34:53;101413.31;;;8.17;99.33
75221;BME280;63802;53.232;6.570;2023-03-21T03:37:24;101455.38;;;8.40;99.09
75221;BME280;63802;53.232;6.570;2023-03-21T03:40:11;101449.63;;;8.42;99.09
75221;BME280;63802;53.232;6.570;2023-03-21T03:42:48;101434.16;;;8.34;98.80
75221;BME280;63802;53.232;6.570;2023-03-21T03:45:17;101434.97;;;8.34;99.05
75221;BME280;63802;53.232;6.570;2023-03-21T03:47:52;101425.53;;;8.32;98.99
75221;BME280;63802;53.232;6.570;2023-03-21T03:50:29;101443.84;;;8.43;99.07
75221;BME280;63802;53.232;6.570;2023-03-21T03:53:04;101447.03;;;8.45;98.97
75221;BME280;63802;53.232;6.570;2023-03-21T03:55:32;101427.94;;;8.33;99.31
75221;BME280;63802;53.232;6.570;2023-03-21T03:57:59;101437.59;;;8.43;98.98
75221;BME280;63802;53.232;6.570;2023-03-21T04:00:26;101404.16;;;8.22;99.07
75221;BME280;63802;53.232;6.570;2023-03-21T04:02:52;101425.34;;;8.37;99.35
75221;BME280;63802;53.232;6.570;2023-03-21T04:05:18;101440.13;;;8.48;98.99
75221;BME280;63802;53.232;6.570;2023-03-21T04:07:46;101424.66;;;8.40;99.00
75221;BME280;63802;53.232;6.570;2023-03-21T04:10:15;101421.81;;;8.36;99.05
75221;BME280;63802;53.232;6.570;2023-03-21T04:12:41;101433.56;;;8.49;99.03
75221;BME280;63802;53.232;6.570;2023-03-21T04:15:07;101400.63;;;8.30;98.86
75221;BME280;63802;53.232;6.570;2023-03-21T04:17:32;101435.13;;;8.50;98.93
75221;BME280;63802;53.232;6.570;2023-03-21T04:19:58;101425.16;;;8.42;98.95
75221;BME280;63802;53.232;6.570;2023-03-21T04:22:24;101419.72;;;8.42;98.75
75221;BME280;63802;53.232;6.570;2023-03-21T04:24:51;101414.28;;;8.42;98.78
75221;BME280;63802;53.232;6.570;2023-03-21T04:27:17;101425.25;;;8.45;98.74
75221;BME280;63802;53.232;6.570;2023-03-21T04:29:43;101407.22;;;8.41;99.10
75221;BME280;63802;53.232;6.570;2023-03-21T04:32:09;101393.56;;;8.29;98.91
75221;BME280;63802;53.232;6.570;2023-03-21T04:34:41;101426.97;;;8.50;98.96
75221;BME280;63802;53.232;6.570;2023-03-21T04:37:08;101426.53;;;8.48;99.14
75221;BME280;63802;53.232;6.570;2023-03-21T04:39:36;101418.38;;;8.48;99.20
75221;BME280;63802;53.232;6.570;2023-03-21T04:42:03;101418.81;;;8.50;99.00
75221;BME280;63802;53.232;6.570;2023-03-21T04:44:29;101400.19;;;8.40;99.03
75221;BME280;63802;53.232;6.570;2023-03-21T04:46:54;101402.84;;;8.48;98.68
75221;BME280;63802;53.232;6.570;2023-03-21T04:49:20;101377.25;;;8.29;99.10
75221;BME280;63802;53.232;6.570;2023-03-21T04:51:46;101417.72;;;8.51;99.02
75221;BME280;63802;53.232;6.570;2023-03-21T04:54:11;101411.13;;;8.52;98.84
75221;BME280;63802;53.232;6.570;2023-03-21T04:56:38;101404.31;;;8.46;98.72
75221;BME280;63802;53.232;6.570;2023-03-21T04:59:09;101386.13;;;8.38;99.08
75221;BME280;63802;53.232;6.570;2023-03-21T05:01:35;101392.50;;;8.42;98.98
75221;BME280;63802;53.232;6.570;2023-03-21T05:04:04;101400.72;;;8.54;98.97
75221;BME280;63802;53.232;6.570;2023-03-21T05:06:30;101389.78;;;8.42;98.77
75221;BME280;63802;53.232;6.570;2023-03-21T05:08:57;101386.28;;;8.41;98.95
75221;BME280;63802;53.232;6.570;2023-03-21T05:11:29;101361.41;;;8.31;98.61
75221;BME280;63802;53.232;6.570;2023-03-21T05:14:00;101362.56;;;8.30;99.05
75221;BME280;63802;53.232;6.570;2023-03-21T05:16:26;101361.09;;;8.32;98.99
75221;BME280;63802;53.232;6.570;2023-03-21T05:18:56;101391.31;;;8.51;98.94
75221;BME280;63802;53.232;6.570;2023-03-21T05:21:24;101385.72;;;8.48;99.14
75221;BME280;63802;53.232;6.570;2023-03-21T05:23:54;101362.56;;;8.30;99.03
75221;BME280;63802;53.232;6.570;2023-03-21T05:26:23;101384.00;;;8.43;99.13
75221;BME280;63802;53.232;6.570;2023-03-21T05:28:49;101385.13;;;8.42;98.81
75221;BME280;63802;53.232;6.570;2023-03-21T05:31:19;101366.63;;;8.36;99.15
75221;BME280;63802;53.232;6.570;2023-03-21T05:33:45;101357.13;;;8.30;98.91
75221;BME280;63802;53.232;6.570;2023-03-21T05:36:12;101393.69;;;8.53;98.91
75221;BME280;63802;53.232;6.570;2023-03-21T05:38:41;101365.19;;;8.38;98.91
75221;BME280;63802;53.232;6.570;2023-03-21T05:41:13;101384.59;;;8.49;98.96
75221;BME280;63802;53.232;6.570;2023-03-21T05:43:40;101363.59;;;8.37;98.80
75221;BME280;63802;53.232;6.570;2023-03-21T05:46:07;101385.88;;;8.51;98.73
75221;BME280;63802;53.232;6.570;2023-03-21T05:48:33;101366.09;;;8.42;99.07
75221;BME280;63802;53.232;6.570;2023-03-21T05:51:02;101373.13;;;8.43;98.95
75221;BME280;63802;53.232;6.570;2023-03-21T05:53:33;101370.56;;;8.47;99.02
75221;BME280;63802;53.232;6.570;2023-03-21T05:56:00;101378.97;;;8.54;98.85
75221;BME280;63802;53.232;6.570;2023-03-21T05:58:32;101353.69;;;8.33;98.79
75221;BME280;63802;53.232;6.570;2023-03-21T06:00:57;101366.56;;;8.44;98.99
75221;BME280;63802;53.232;6.570;2023-03-21T06:03:26;101359.63;;;8.35;99.10
75221;BME280;63802;53.232;6.570;2023-03-21T06:05:51;101383.59;;;8.53;98.84
75221;BME280;63802;53.232;6.570;2023-03-21T06:08:17;101384.06;;;8.55;98.96
75221;BME280;63802;53.232;6.570;2023-03-21T06:10:43;101356.22;;;8.38;99.14
75221;BME280;63802;53.232;6.570;2023-03-21T06:13:08;101367.16;;;8.50;99.17
75221;BME280;63802;53.232;6.570;2023-03-21T06:15:34;101351.72;;;8.42;98.75
75221;BME280;63802;53.232;6.570;2023-03-21T06:17:59;101342.50;;;8.34;99.12
75221;BME280;63802;53.232;6.570;2023-03-21T06:20:25;101359.53;;;8.43;99.04
75221;BME280;63802;53.232;6.570;2023-03-21T06:22:50;101382.25;;;8.59;98.99
75221;BME280;63802;53.232;6.570;2023-03-21T06:25:16;101377.50;;;8.56;99.22
75221;BME280;63802;53.232;6.570;2023-03-21T06:27:41;101385.44;;;8.61;99.23
75221;BME280;63802;53.232;6.570;2023-03-21T06:30:07;101378.28;;;8.57;98.93
75221;BME280;63802;53.232;6.570;2023-03-21T06:32:33;101377.16;;;8.58;99.09
75221;BME280;63802;53.232;6.570;2023-03-21T06:34:59;101383.97;;;8.64;99.19
75221;BME280;63802;53.232;6.570;2023-03-21T06:37:25;101366.72;;;8.60;99.22
75221;BME280;63802;53.232;6.570;2023-03-21T06:39:51;101386.22;;;8.62;99.14
75221;BME280;63802;53.232;6.570;2023-03-21T06:42:17;101385.56;;;8.65;99.05
75221;BME280;63802;53.232;6.570;2023-03-21T06:44:43;101366.47;;;8.53;99.15
75221;BME280;63802;53.232;6.570;2023-03-21T06:47:12;101364.47;;;8.62;99.31
75221;BME280;63802;53.232;6.570;2023-03-21T06:49:37;101377.53;;;8.68;98.88
75221;BME280;63802;53.232;6.570;2023-03-21T06:52:05;101377.41;;;8.65;99.21
75221;BME280;63802;53.232;6.570;2023-03-21T06:54:30;101350.63;;;8.55;99.16
75221;BME280;63802;53.232;6.570;2023-03-21T06:56:58;101346.63;;;8.52;99.01
75221;BME280;63802;53.232;6.570;2023-03-21T06:59:24;101379.03;;;8.78;98.99
75221;BME280;63802;53.232;6.570;2023-03-21T07:01:50;101367.22;;;8.74;99.24
75221;BME280;63802;53.232;6.570;2023-03-21T07:04:15;101371.66;;;8.78;99.14
75221;BME280;63802;53.232;6.570;2023-03-21T07:06:41;101376.53;;;8.73;98.90
75221;BME280;63802;53.232;6.570;2023-03-21T07:09:10;101360.88;;;8.70;99.03
75221;BME280;63802;53.232;6.570;2023-03-21T07:11:36;101379.72;;;8.87;99.19
75221;BME280;63802;53.232;6.570;2023-03-21T07:14:02;101388.81;;;8.91;98.83
75221;BME280;63802;53.232;6.570;2023-03-21T07:16:31;101373.69;;;8.82;99.16
75221;BME280;63802;53.232;6.570;2023-03-21T07:18:57;101383.38;;;8.91;99.08
75221;BME280;63802;53.232;6.570;2023-03-21T07:21:25;101388.34;;;8.89;99.08
75221;BME280;63802;53.232;6.570;2023-03-21T07:23:51;101359.25;;;8.69;98.89
75221;BME280;63802;53.232;6.570;2023-03-21T07:26:17;101380.19;;;8.89;99.22
75221;BME280;63802;53.232;6.570;2023-03-21T07:28:43;101383.47;;;8.83;98.81
75221;BME280;63802;53.232;6.570;2023-03-21T07:31:14;101393.59;;;8.94;99.12
75221;BME280;63802;53.232;6.570;2023-03-21T07:33:40;101385.84;;;8.84;99.11
75221;BME280;63802;53.232;6.570;2023-03-21T07:36:11;101387.19;;;8.90;98.92
75221;BME280;63802;53.232;6.570;2023-03-21T07:38:38;101375.41;;;8.86;99.07
75221;BME280;63802;53.232;6.570;2023-03-21T07:41:05;101384.97;;;8.92;98.94
75221;BME280;63802;53.232;6.570;2023-03-21T07:43:31;101363.63;;;8.82;98.99
75221;BME280;63802;53.232;6.570;2023-03-21T07:45:57;101375.66;;;8.93;99.09
75221;BME280;63802;53.232;6.570;2023-03-21T07:48:23;101379.16;;;8.94;98.88
75221;BME280;63802;53.232;6.570;2023-03-21T07:50:49;101356.56;;;8.81;99.05
75221;BME280;63802;53.232;6.570;2023-03-21T07:53:15;101353.41;;;8.79;99.06
75221;BME280;63802;53.232;6.570;2023-03-21T07:55:41;101386.56;;;9.05;98.95
75221;BME280;63802;53.232;6.570;2023-03-21T07:58:07;101379.31;;;8.97;99.01
75221;BME280;63802;53.232;6.570;2023-03-21T08:00:32;101388.63;;;9.08;98.83
75221;BME280;63802;53.232;6.570;2023-03-21T08:02:58;101375.44;;;8.98;99.03
75221;BME280;63802;53.232;6.570;2023-03-21T08:05:35;101356.81;;;8.88;98.66
75221;BME280;63802;53.232;6.570;2023-03-21T08:08:02;101350.91;;;8.86;98.82
75221;BME280;63802;53.232;6.570;2023-03-21T08:10:28;101363.28;;;8.96;98.74
75221;BME280;63802;53.232;6.570;2023-03-21T08:12:54;101383.63;;;9.10;98.86
75221;BME280;63802;53.232;6.570;2023-03-21T08:15:20;101384.06;;;9.12;98.77
75221;BME280;63802;53.232;6.570;2023-03-21T08:17:46;101359.56;;;9.00;99.09
75221;BME280;63802;53.232;6.570;2023-03-21T08:20:18;101370.25;;;9.17;99.11
75221;BME280;63802;53.232;6.570;2023-03-21T08:22:46;101372.75;;;9.22;98.61
75221;BME280;63802;53.232;6.570;2023-03-21T08:25:13;101369.56;;;9.20;98.76
75221;BME280;63802;53.232;6.570;2023-03-21T08:27:41;101361.50;;;9.12;98.59
75221;BME280;63802;53.232;6.570;2023-03-21T08:30:08;101365.81;;;9.25;98.56
75221;BME280;63802;53.232;6.570;2023-03-21T08:32:34;101353.91;;;9.17;98.67
75221;BME280;63802;53.232;6.570;2023-03-21T08:35:05;101341.53;;;8.96;98.54
75221;BME280;63802;53.232;6.570;2023-03-21T08:37:36;101368.41;;;9.21;98.73
75221;BME280;63802;53.232;6.570;2023-03-21T08:40:03;101350.50;;;9.08;98.52
75221;BME280;63802;53.232;6.570;2023-03-21T08:42:32;101319.50;;;8.89;98.53
75221;BME280;63802;53.232;6.570;2023-03-21T08:44:58;101337.09;;;9.03;98.35
75221;BME280;63802;53.232;6.570;2023-03-21T08:47:23;101370.03;;;9.22;98.60
75221;BME280;63802;53.232;6.570;2023-03-21T08:49:49;101353.91;;;9.17;98.34
75221;BME280;63802;53.232;6.570;2023-03-21T08:52:14;101361.38;;;9.08;98.37
75221;BME280;63802;53.232;6.570;2023-03-21T08:54:39;101352.78;;;9.06;98.59
75221;BME280;63802;53.232;6.570;2023-03-21T08:57:06;101347.78;;;9.08;98.08
75221;BME280;63802;53.232;6.570;2023-03-21T08:59:33;101362.06;;;9.17;98.51
75221;BME280;63802;53.232;6.570;2023-03-21T09:01:58;101360.72;;;9.11;98.49
75221;BME280;63802;53.232;6.570;2023-03-21T09:04:24;101350.50;;;9.08;98.50
75221;BME280;63802;53.232;6.570;2023-03-21T09:06:50;101354.13;;;9.12;98.29
75221;BME280;63802;53.232;6.570;2023-03-21T09:09:16;101362.19;;;9.09;98.37
75221;BME280;63802;53.232;6.570;2023-03-21T09:11:42;101360.50;;;9.16;98.51
75221;BME280;63802;53.232;6.570;2023-03-21T09:14:08;101357.31;;;9.26;98.43
75221;BME280;63802;53.232;6.570;2023-03-21T09:16:33;101354.94;;;9.25;98.47
75221;BME280;63802;53.232;6.570;2023-03-21T09:18:59;101344.72;;;9.22;98.17
75221;BME280;63802;53.232;6.570;2023-03-21T09:21:28;101348.69;;;9.24;98.46
75221;BME280;63802;53.232;6.570;2023-03-21T09:23:54;101350.59;;;9.24;98.14
75221;BME280;63802;53.232;6.570;2023-03-21T09:26:23;101328.72;;;9.08;98.01
75221;BME280;63802;53.232;6.570;2023-03-21T09:28:49;101324.88;;;9.09;98.23
75221;BME280;63802;53.232;6.570;2023-03-21T09:31:16;101329.63;;;9.12;98.12
75221;BME280;63802;53.232;6.570;2023-03-21T09:33:45;101335.88;;;9.13;98.00
75221;BME280;63802;53.232;6.570;2023-03-21T09:36:12;101334.84;;;9.17;97.95
75221;BME280;63802;53.232;6.570;2023-03-21T09:38:42;101338.47;;;9.21;98.08
75221;BME280;63802;53.232;6.570;2023-03-21T09:41:38;101328.50;;;9.25;97.86
75221;BME280;63802;53.232;6.570;2023-03-21T09:49:40;101319.09;;;9.23;97.96
75221;BME280;63802;53.232;6.570;2023-03-21T09:52:21;101322.25;;;9.13;98.08
75221;BME280;63802;53.232;6.570;2023-03-21T09:54:49;101306.94;;;9.08;97.73
75221;BME280;63802;53.232;6.570;2023-03-21T09:59:47;101333.03;;;9.09;97.58
75221;BME280;63802;53.232;6.570;2023-03-21T10:02:38;101331.66;;;9.03;97.52
75221;BME280;63802;53.232;6.570;2023-03-21T10:05:21;101320.69;;;9.00;97.42
75221;BME280;63802;53.232;6.570;2023-03-21T10:08:11;101297.16;;;8.83;97.67
75221;BME280;63802;53.232;6.570;2023-03-21T10:10:54;101314.53;;;9.03;97.65
75221;BME280;63802;53.232;6.570;2023-03-21T10:13:25;101298.78;;;8.96;97.43
75221;BME280;63802;53.232;6.570;2023-03-21T10:15:57;101305.13;;;9.00;97.26
75221;BME280;63802;53.232;6.570;2023-03-21T10:18:25;101311.34;;;9.01;97.10
75221;BME280;63802;53.232;6.570;2023-03-21T10:20:51;101322.03;;;9.06;97.31
75221;BME280;63802;53.232;6.570;2023-03-21T10:23:20;101324.88;;;9.09;97.22
75221;BME280;63802;53.232;6.570;2023-03-21T10:25:51;101312.59;;;9.03;96.92
75221;BME280;63802;53.232;6.570;2023-03-21T10:28:26;101322.38;;;9.04;96.95
75221;BME280;63802;53.232;6.570;2023-03-21T10:30:55;101285.94;;;8.85;97.16
75221;BME280;63802;53.232;6.570;2023-03-21T10:33:31;101288.78;;;8.88;96.89
75221;BME280;63802;53.232;6.570;2023-03-21T10:36:22;101306.72;;;9.01;97.06
75221;BME280;63802;53.232;6.570;2023-03-21T10:38:49;101314.66;;;9.06;97.25
75221;BME280;63802;53.232;6.570;2023-03-21T10:41:17;101310.00;;;9.07;96.89
75221;BME280;63802;53.232;6.570;2023-03-21T10:43:44;101290.47;;;9.05;96.73
75221;BME280;63802;53.232;6.570;2023-03-21T10:46:18;101297.88;;;9.04;96.83
75221;BME280;63802;53.232;6.570;2023-03-21T10:48:51;101314.44;;;9.23;96.79
75221;BME280;63802;53.232;6.570;2023-03-21T10:51:24;101311.59;;;9.32;96.59
75221;BME280;63802;53.232;6.570;2023-03-21T10:53:54;101265.22;;;9.16;96.39
75221;BME280;63802;53.232;6.570;2023-03-21T10:56:28;101275.81;;;9.33;96.44
75221;BME280;63802;53.232;6.570;2023-03-21T10:58:58;101262.56;;;9.20;96.37
75221;BME280;63802;53.232;6.570;2023-03-21T11:01:36;101265.16;;;9.40;96.30
75221;BME280;63802;53.232;6.570;2023-03-21T11:04:20;101280.94;;;9.47;96.26
75221;BME280;63802;53.232;6.570;2023-03-21T11:06:55;101269.69;;;9.49;95.89
75221;BME280;63802;53.232;6.570;2023-03-21T11:09:27;101274.63;;;9.71;96.15
75221;BME280;63802;53.232;6.570;2023-03-21T11:12:14;101274.81;;;9.78;95.88
75221;BME280;63802;53.232;6.570;2023-03-21T11:14:45;101270.22;;;9.94;95.90
75221;BME280;63802;53.232;6.570;2023-03-21T11:19:51;101247.97;;;9.92;95.47
75221;BME280;63802;53.232;6.570;2023-03-21T11:22:19;101279.00;;;10.15;95.28
75221;BME280;63802;53.232;6.570;2023-03-21T11:24:50;101269.00;;;10.19;94.94
75221;BME280;63802;53.232;6.570;2023-03-21T11:27:17;101269.88;;;10.23;94.60
75221;BME280;63802;53.232;6.570;2023-03-21T11:29:50;101256.88;;;10.04;94.35
75221;BME280;63802;53.232;6.570;2023-03-21T11:32:36;101254.94;;;10.17;94.11
75221;BME280;63802;53.232;6.570;2023-03-21T11:35:19;101250.38;;;10.21;93.99
75221;BME280;63802;53.232;6.570;2023-03-21T11:37:50;101255.31;;;10.31;93.45
75221;BME280;63802;53.232;6.570;2023-03-21T11:40:21;101263.41;;;10.43;93.44
75221;BME280;63802;53.232;6.570;2023-03-21T11:45:31;101255.94;;;10.40;93.06
75221;BME280;63802;53.232;6.570;2023-03-21T11:47:59;101240.44;;;10.44;92.78
75221;BME280;63802;53.232;6.570;2023-03-21T11:50:38;101232.06;;;10.37;92.44
75221;BME280;63802;53.232;6.570;2023-03-21T11:55:55;101245.09;;;10.44;91.68
75221;BME280;63802;53.232;6.570;2023-03-21T12:01:02;101211.22;;;10.45;91.42
75221;BME280;63802;53.232;6.570;2023-03-21T12:03:46;101224.88;;;10.60;91.07
75221;BME280;63802;53.232;6.570;2023-03-21T12:06:20;101206.63;;;10.49;90.78
75221;BME280;63802;53.232;6.570;2023-03-21T12:11:30;101223.72;;;10.61;90.68
75221;BME280;63802;53.232;6.570;2023-03-21T12:22:40;101216.06;;;10.51;89.92
75221;BME280;63802;53.232;6.570;2023-03-21T12:25:14;101204.72;;;10.34;89.76
75221;BME280;63802;53.232;6.570;2023-03-21T12:28:04;101177.78;;;10.17;89.63
75221;BME280;63802;53.232;6.570;2023-03-21T12:33:37;101209.38;;;10.33;89.44
75221;BME280;63802;53.232;6.570;2023-03-21T12:41:24;101190.63;;;10.16;89.51
75221;BME280;63802;53.232;6.570;2023-03-21T12:44:03;101201.25;;;10.21;89.02
75221;BME280;63802;53.232;6.570;2023-03-21T12:47:12;101204.53;;;10.27;88.96
75221;BME280;63802;53.232;6.570;2023-03-21T12:49:58;101208.41;;;10.26;89.08
75221;BME280;63802;53.232;6.570;2023-03-21T12:52:45;101187.53;;;10.18;89.14
75221;BME280;63802;53.232;6.570;2023-03-21T12:55:22;101195.38;;;10.35;89.62
75221;BME280;63802;53.232;6.570;2023-03-21T12:58:04;101165.56;;;10.26;89.63
75221;BME280;63802;53.232;6.570;2023-03-21T13:00:43;101192.41;;;10.55;89.71
75221;BME280;63802;53.232;6.570;2023-03-21T13:03:39;101174.06;;;10.56;89.17
75221;BME280;63802;53.232;6.570;2023-03-21T13:06:09;101166.03;;;10.63;89.00
75221;BME280;63802;53.232;6.570;2023-03-21T13:08:42;101149.16;;;10.57;88.77
75221;BME280;63802;53.232;6.570;2023-03-21T13:11:14;101159.38;;;10.60;88.47
75221;BME280;63802;53.232;6.570;2023-03-21T13:13:46;101167.28;;;10.65;88.52
75221;BME280;63802;53.232;6.570;2023-03-21T13:19:07;101164.78;;;10.92;88.38
75221;BME280;63802;53.232;6.570;2023-03-21T13:24:23;101159.31;;;10.92;87.56
75221;BME280;63802;53.232;6.570;2023-03-21T13:27:14;101147.13;;;11.05;87.68
75221;BME280;63802;53.232;6.570;2023-03-21T13:29:46;101121.28;;;11.18;87.49
75221;BME280;63802;53.232;6.570;2023-03-21T13:32:32;101108.97;;;11.08;86.98
75221;BME280;63802;53.232;6.570;2023-03-21T13:38:21;101120.38;;;11.33;86.79
75221;BME280;63802;53.232;6.570;2023-03-21T13:40:56;101121.13;;;11.30;86.92
75221;BME280;63802;53.232;6.570;2023-03-21T13:43:42;101137.28;;;11.38;86.39
75221;BME280;63802;53.232;6.570;2023-03-21T13:46:14;101131.31;;;11.33;86.41
75221;BME280;63802;53.232;6.570;2023-03-21T13:48:59;101127.81;;;11.32;86.20
75221;BME280;63802;53.232;6.570;2023-03-21T14:02:32;101106.97;;;11.24;85.86
75221;BME280;63802;53.232;6.570;2023-03-21T14:05:13;101097.69;;;11.29;85.83
75221;BME280;63802;53.232;6.570;2023-03-21T14:07:45;101083.38;;;11.16;85.61
75221;BME280;63802;53.232;6.570;2023-03-21T14:10:22;101082.53;;;11.12;85.48
75221;BME280;63802;53.232;6.570;2023-03-21T14:12:50;101055.50;;;10.88;85.55
75221;BME280;63802;53.232;6.570;2023-03-21T14:15:23;101058.31;;;10.92;85.57
75221;BME280;63802;53.232;6.570;2023-03-21T14:18:00;101044.66;;;10.92;85.68
75221;BME280;63802;53.232;6.570;2023-03-21T14:20:34;101063.31;;;11.28;85.26
75221;BME280;63802;53.232;6.570;2023-03-21T14:23:10;101069.19;;;11.68;85.25
75221;BME280;63802;53.232;6.570;2023-03-21T14:25:40;101041.59;;;12.26;84.61
75221;BME280;63802;53.232;6.570;2023-03-21T14:28:19;101030.59;;;12.48;82.72
75221;BME280;63802;53.232;6.570;2023-03-21T14:30:51;101064.94;;;12.72;81.10
75221;BME280;63802;53.232;6.570;2023-03-21T14:33:25;101059.28;;;12.58;80.02
75221;BME280;63802;53.232;6.570;2023-03-21T14:35:56;101049.06;;;12.29;79.37
75221;BME280;63802;53.232;6.570;2023-03-21T14:38:25;101062.00;;;12.32;79.94
75221;BME280;63802;53.232;6.570;2023-03-21T14:40:54;101018.53;;;12.00;80.48
75221;BME280;63802;53.232;6.570;2023-03-21T14:43:24;101043.13;;;11.97;80.40
75221;BME280;63802;53.232;6.570;2023-03-21T14:45:52;101023.06;;;11.89;80.73
75221;BME280;63802;53.232;6.570;2023-03-21T14:48:20;101042.63;;;11.91;79.94